Time;durP1;ratioP1;P1;durP2;ratioP2;P2;SDS_P1;SDS_P2;PMS_P1;PMS_P2;Temp;Humidity;BMP_temperature;BMP_pressure;BME280_temperature;BME280_humidity;BME280_pressure;Samples;Min_cycle;Max_cycle;Signal;HPM_P1;HPM_P2
2023/09/11 00:00:11;;;;;;;6.10;4.50;;;;;;;27.78;41.04;100367.88;5114390;28;20127;-69
2023/09/11 00:02:40;;;;;;;6.85;4.57;;;;;;;27.76;40.47;100367.25;5115603;28;20093;-69
2023/09/11 00:05:09;;;;;;;6.47;4.32;;;;;;;27.74;41.00;100370.19;5115248;28;20398;-68
2023/09/11 00:07:37;;;;;;;6.50;4.43;;;;;;;27.74;41.04;100366.63;5115554;28;20389;-68
2023/09/11 00:10:06;;;;;;;6.10;4.55;;;;;;;27.73;41.01;100370.41;5115287;28;20047;-69
2023/09/11 00:12:35;;;;;;;6.35;4.60;;;;;;;27.71;40.99;100361.53;5115202;28;20587;-69
2023/09/11 00:15:03;;;;;;;7.70;4.47;;;;;;;27.69;40.83;100360.88;5115339;28;20047;-68
2023/09/11 00:17:33;;;;;;;6.00;4.40;;;;;;;27.66;40.92;100362.13;5114982;28;20048;-68
2023/09/11 00:20:06;;;;;;;6.72;4.68;;;;;;;27.66;41.27;100368.44;5115113;28;20055;-67
2023/09/11 00:22:34;;;;;;;6.93;4.60;;;;;;;27.64;40.78;100362.31;5097739;28;20495;-67
2023/09/11 00:25:03;;;;;;;6.53;4.60;;;;;;;27.62;40.96;100360.81;5115085;28;20051;-68
2023/09/11 00:27:31;;;;;;;6.55;4.60;;;;;;;27.57;40.96;100357.81;5114951;28;20043;-67
2023/09/11 00:29:59;;;;;;;7.13;4.32;;;;;;;27.59;41.20;100359.31;5114887;28;20047;-67
2023/09/11 00:32:28;;;;;;;6.13;4.40;;;;;;;27.58;41.27;100351.28;5115022;28;20051;-67
2023/09/11 00:34:58;;;;;;;5.75;4.40;;;;;;;27.57;40.83;100352.34;5115154;28;20404;-68
2023/09/11 00:37:26;;;;;;;6.82;4.72;;;;;;;27.54;41.29;100348.13;5114947;28;20046;-67
2023/09/11 00:39:54;;;;;;;7.07;4.43;;;;;;;27.55;41.30;100354.44;5114665;28;20055;-67
2023/09/11 00:42:22;;;;;;;6.93;4.43;;;;;;;27.52;40.97;100352.09;5114690;28;20048;-67
2023/09/11 00:44:52;;;;;;;6.78;4.57;;;;;;;27.50;41.41;100343.22;5114571;28;20040;-67
2023/09/11 00:47:21;;;;;;;6.95;4.60;;;;;;;27.51;41.51;100347.69;5114796;28;20054;-69
2023/09/11 00:49:50;;;;;;;6.28;4.60;;;;;;;27.49;41.43;100341.53;5114613;28;20043;-68
2023/09/11 00:52:20;;;;;;;5.40;4.10;;;;;;;27.48;41.01;100348.06;5114364;28;20481;-68
2023/09/11 00:54:48;;;;;;;6.47;4.65;;;;;;;27.46;41.25;100347.41;5114345;28;20426;-68
2023/09/11 00:57:18;;;;;;;6.10;4.35;;;;;;;27.44;40.91;100346.78;5114181;28;20051;-67
2023/09/11 00:59:48;;;;;;;6.95;4.63;;;;;;;27.43;41.06;100345.09;5114326;28;20047;-68
2023/09/11 01:02:17;;;;;;;5.68;4.47;;;;;;;27.42;41.55;100346.13;5114283;28;20055;-67
2023/09/11 01:04:46;;;;;;;7.75;4.70;;;;;;;27.41;41.35;100342.56;5114294;28;20040;-67
2023/09/11 01:07:17;;;;;;;6.65;4.50;;;;;;;27.39;41.17;100340.00;5114149;28;20052;-68
2023/09/11 01:09:47;;;;;;;5.82;4.15;;;;;;;27.38;41.24;100348.41;5113835;28;20517;-69
2023/09/11 01:12:15;;;;;;;6.40;4.43;;;;;;;27.37;41.24;100353.03;5113969;28;20496;-69
2023/09/11 01:14:44;;;;;;;7.45;4.75;;;;;;;27.35;41.65;100344.19;5114375;28;20047;-68
2023/09/11 01:17:19;;;;;;;6.50;4.20;;;;;;;27.35;41.26;100346.06;5114066;28;20051;-68
2023/09/11 01:20:20;;;;;;;6.57;4.72;;;;;;;27.32;41.41;100347.34;5113909;28;20104;-68
2023/09/11 01:23:12;;;;;;;6.40;4.22;;;;;;;27.31;41.50;100340.16;5114271;28;20122;-68
2023/09/11 01:26:02;;;;;;;6.03;4.68;;;;;;;27.28;41.21;100336.97;5113802;28;20079;-68
2023/09/11 01:29:02;;;;;;;6.60;4.50;;;;;;;27.27;41.11;100340.75;5113720;28;20073;-68
2023/09/11 01:31:33;;;;;;;6.53;4.50;;;;;;;27.24;41.15;100336.53;5113896;28;20050;-68
2023/09/11 01:34:02;;;;;;;6.63;4.57;;;;;;;27.23;41.47;100337.56;5113781;28;20089;-69
2023/09/11 01:36:30;;;;;;;6.38;4.63;;;;;;;27.23;41.43;100340.31;5113792;28;20063;-68
2023/09/11 01:38:59;;;;;;;6.20;4.22;;;;;;;27.22;41.21;100341.34;5113480;28;20054;-68
2023/09/11 01:41:34;;;;;;;6.03;4.40;;;;;;;27.20;41.11;100334.34;5113475;28;20507;-67
2023/09/11 01:44:08;;;;;;;5.68;4.05;;;;;;;27.20;41.42;100335.19;5113425;28;20082;-67
2023/09/11 01:46:38;;;;;;;7.50;4.40;;;;;;;27.18;41.32;100342.78;5113474;28;20390;-67
2023/09/11 01:49:08;;;;;;;6.10;4.07;;;;;;;27.17;41.24;100341.09;5113229;28;20044;-68
2023/09/11 01:51:38;;;;;;;6.05;4.07;;;;;;;27.15;41.65;100340.44;5113309;28;20048;-68
2023/09/11 01:54:08;;;;;;;5.43;4.13;;;;;;;27.15;41.28;100347.81;5113405;28;20390;-68
2023/09/11 01:56:36;;;;;;;5.63;4.28;;;;;;;27.13;41.74;100336.22;5113531;28;20461;-68
2023/09/11 01:59:05;;;;;;;5.40;4.10;;;;;;;27.12;41.43;100332.63;5113189;28;20043;-69
2023/09/11 02:01:33;;;;;;;6.43;4.50;;;;;;;27.10;41.90;100340.19;5113246;28;20047;-68
2023/09/11 02:04:03;;;;;;;5.90;4.30;;;;;;;27.09;41.59;100339.34;5113190;28;20058;-68
2023/09/11 02:06:32;;;;;;;5.50;4.30;;;;;;;27.08;41.46;100334.91;5113484;28;20048;-68
2023/09/11 02:09:00;;;;;;;6.07;4.40;;;;;;;27.07;41.69;100340.59;5113289;28;20048;-68
2023/09/11 02:11:28;;;;;;;6.72;4.50;;;;;;;27.06;41.60;100337.00;5112849;28;20051;-68
2023/09/11 02:13:56;;;;;;;6.60;4.45;;;;;;;27.04;41.77;100333.63;5112844;28;20047;-68
2023/09/11 02:16:24;;;;;;;5.47;4.20;;;;;;;27.04;41.74;100341.84;5112800;28;20096;-68
2023/09/11 02:18:53;;;;;;;7.40;4.60;;;;;;;27.03;41.42;100340.13;5112840;28;20098;-68
2023/09/11 02:21:23;;;;;;;6.45;4.40;;;;;;;27.02;41.82;100332.97;5112481;28;20118;-66
2023/09/11 02:23:51;;;;;;;6.65;4.50;;;;;;;26.99;41.88;100330.56;5112875;28;20393;-67
2023/09/11 02:26:19;;;;;;;7.25;4.43;;;;;;;26.99;41.47;100332.47;5112809;28;20050;-67
2023/09/11 02:28:47;;;;;;;5.68;4.30;;;;;;;26.96;41.58;100333.72;5112613;28;20047;-68
2023/09/11 02:31:16;;;;;;;6.13;4.35;;;;;;;26.96;41.78;100335.59;5112499;28;20051;-68
2023/09/11 02:33:44;;;;;;;6.43;4.15;;;;;;;26.96;41.65;100332.88;5112530;28;20047;-67
2023/09/11 02:36:12;;;;;;;6.28;4.30;;;;;;;26.94;41.67;100340.44;5112719;28;20048;-68
2023/09/11 02:38:42;;;;;;;6.20;4.28;;;;;;;26.93;42.02;100333.28;5112657;28;20473;-68
2023/09/11 02:41:10;;;;;;;6.65;4.35;;;;;;;26.91;42.14;100335.34;5112501;28;20047;-68
2023/09/11 02:43:39;;;;;;;6.32;4.38;;;;;;;26.89;41.63;100331.97;5112487;28;20412;-68
2023/09/11 02:46:07;;;;;;;6.57;4.50;;;;;;;26.89;41.79;100329.22;5112370;28;20055;-67
2023/09/11 02:48:37;;;;;;;5.63;4.25;;;;;;;26.88;42.18;100324.78;5112527;28;20043;-67
2023/09/11 02:51:05;;;;;;;5.78;4.20;;;;;;;26.87;41.77;100332.16;5112463;28;20050;-68
2023/09/11 02:53:34;;;;;;;5.13;3.97;;;;;;;26.85;42.09;100331.50;5112244;28;20040;-68
2023/09/11 02:56:04;;;;;;;6.72;4.20;;;;;;;26.84;41.74;100328.97;5112201;28;20047;-67
2023/09/11 02:58:33;;;;;;;6.05;4.30;;;;;;;26.83;42.23;100322.66;5094324;28;20047;-68
2023/09/11 03:01:02;;;;;;;6.55;4.10;;;;;;;26.82;42.11;100321.78;5112370;28;20055;-67
2023/09/11 03:03:31;;;;;;;6.05;4.13;;;;;;;26.81;41.89;100331.03;5112268;28;20458;-68
2023/09/11 03:06:03;;;;;;;6.68;4.28;;;;;;;26.80;42.22;100323.88;5112249;28;20130;-68
2023/09/11 03:08:31;;;;;;;6.38;4.43;;;;;;;26.78;41.94;100323.22;5112027;28;20126;-68
2023/09/11 03:11:08;;;;;;;5.95;3.80;;;;;;;26.77;42.01;100324.28;5111877;28;20047;-68
2023/09/11 03:13:37;;;;;;;5.82;4.22;;;;;;;26.77;42.28;100326.16;5112088;28;20458;-68
2023/09/11 03:16:09;;;;;;;5.63;3.88;;;;;;;26.74;42.29;100319.22;5111852;28;20047;-68
2023/09/11 03:18:38;;;;;;;5.90;4.30;;;;;;;26.74;42.10;100332.03;5111811;28;20051;-67
2023/09/11 03:21:08;;;;;;;6.07;4.13;;;;;;;26.73;42.22;100328.47;5111872;28;20060;-67
2023/09/11 03:23:36;;;;;;;7.70;4.60;;;;;;;26.70;41.81;100317.88;5111660;28;20047;-68
2023/09/11 03:26:14;;;;;;;5.47;3.90;;;;;;;26.72;42.24;100331.38;5111929;28;20044;-68
2023/09/11 03:28:47;;;;;;;6.57;4.25;;;;;;;26.70;41.94;100326.09;5111822;28;20043;-67
2023/09/11 03:31:16;;;;;;;5.93;3.95;;;;;;;26.69;42.10;100327.13;5111863;28;20101;-67
2023/09/11 03:33:45;;;;;;;5.95;4.32;;;;;;;26.66;42.19;100316.59;5112198;28;20043;-66
2023/09/11 03:36:17;;;;;;;5.55;3.95;;;;;;;26.67;42.35;100317.44;5115695;28;20071;-66
2023/09/11 03:38:46;;;;;;;7.55;4.90;;;;;;;26.66;41.87;100327.53;5116017;28;20071;-66
2023/09/11 03:41:16;;;;;;;6.60;4.28;;;;;;;26.65;41.93;100316.78;5115820;28;20090;-66
2023/09/11 03:43:44;;;;;;;6.35;4.38;;;;;;;26.63;42.26;100325.16;5115728;28;20093;-66
2023/09/11 03:46:13;;;;;;;5.45;4.28;;;;;;;26.62;42.06;100320.75;5115759;28;20047;-68
2023/09/11 03:48:42;;;;;;;5.70;4.10;;;;;;;26.58;42.28;100319.47;5115575;28;20649;-67
2023/09/11 03:51:11;;;;;;;5.55;3.97;;;;;;;26.59;42.16;100320.28;5115854;28;20040;-67
2023/09/11 03:53:42;;;;;;;6.68;4.18;;;;;;;26.57;42.22;100317.75;5115756;28;20044;-67
2023/09/11 03:56:11;;;;;;;6.07;4.27;;;;;;;26.55;42.29;100314.38;5115752;28;20056;-68
2023/09/11 03:58:43;;;;;;;5.82;4.25;;;;;;;26.53;42.39;100310.97;5115443;28;20044;-68
2023/09/11 04:01:11;;;;;;;6.15;4.10;;;;;;;26.54;42.43;100315.44;5115033;28;20104;-68
2023/09/11 04:03:41;;;;;;;6.30;4.03;;;;;;;26.53;42.07;100311.81;5115288;28;20047;-67
2023/09/11 04:06:10;;;;;;;6.80;4.60;;;;;;;26.51;42.53;100310.31;5115289;28;20044;-67
2023/09/11 04:08:38;;;;;;;6.28;4.30;;;;;;;26.49;42.49;100304.22;5115073;28;20048;-68
2023/09/11 04:11:07;;;;;;;7.07;4.32;;;;;;;26.50;42.47;100308.63;5115118;28;20389;-67
2023/09/11 04:13:35;;;;;;;6.47;3.90;;;;;;;26.49;42.27;100315.16;5115046;28;20139;-68
2023/09/11 04:16:05;;;;;;;6.50;4.38;;;;;;;26.48;42.28;100313.47;5115076;28;20125;-67
2023/09/11 04:18:33;;;;;;;5.82;4.13;;;;;;;26.46;42.22;100310.06;5115221;28;20048;-68
2023/09/11 04:21:03;;;;;;;7.43;4.72;;;;;;;26.46;42.73;100308.19;5115130;28;20047;-66
2023/09/11 04:23:31;;;;;;;5.75;4.03;;;;;;;26.44;42.09;100310.28;5114947;28;20052;-67
2023/09/11 04:26:01;;;;;;;6.70;4.22;;;;;;;26.45;42.35;100302.91;5114920;28;20404;-67
2023/09/11 04:28:29;;;;;;;7.68;4.50;;;;;;;26.42;42.24;100308.75;5113359;28;20051;-67
2023/09/11 04:30:57;;;;;;;6.50;4.30;;;;;;;26.43;42.48;100310.44;5115032;28;20112;-67
2023/09/11 04:33:28;;;;;;;7.22;4.75;;;;;;;26.40;42.51;100302.63;5114648;28;20475;-67
2023/09/11 04:35:57;;;;;;;7.00;4.32;;;;;;;26.40;42.45;100306.22;5114682;28;20130;-68
2023/09/11 04:38:25;;;;;;;6.38;4.30;;;;;;;26.40;42.64;100302.63;5114660;28;20433;-68
2023/09/11 04:40:57;;;;;;;6.07;3.97;;;;;;;26.38;42.31;100299.25;5114401;28;20043;-68
2023/09/11 04:43:25;;;;;;;7.05;4.50;;;;;;;26.34;42.14;100293.28;5114377;28;20039;-68
2023/09/11 04:45:54;;;;;;;6.80;4.53;;;;;;;26.36;42.53;100293.09;5113911;28;20193;-68
2023/09/11 04:48:22;;;;;;;7.05;4.85;;;;;;;26.36;42.40;100293.94;5114252;28;20051;-68
2023/09/11 04:50:52;;;;;;;6.75;4.43;;;;;;;26.35;42.15;100294.16;5114451;28;20051;-67
2023/09/11 04:53:21;;;;;;;6.70;4.45;;;;;;;26.35;42.22;100302.34;5114102;28;20047;-67
2023/09/11 04:55:49;;;;;;;5.93;4.40;;;;;;;26.32;42.45;100294.50;5114343;28;20055;-67
2023/09/11 04:58:17;;;;;;;6.88;4.55;;;;;;;26.32;42.52;100299.97;5113972;28;20531;-67
2023/09/11 05:00:46;;;;;;;7.57;4.70;;;;;;;26.31;42.28;100296.41;5114180;28;20131;-67
2023/09/11 05:03:14;;;;;;;8.20;4.55;;;;;;;26.30;42.24;100297.44;5114209;28;20051;-68
2023/09/11 05:05:42;;;;;;;6.13;4.40;;;;;;;26.29;42.63;100300.38;5113999;28;20153;-67
2023/09/11 05:08:12;;;;;;;6.43;4.45;;;;;;;26.30;42.72;100299.34;5113816;28;20173;-67
2023/09/11 05:10:42;;;;;;;5.60;4.40;;;;;;;26.28;42.30;100295.97;5113971;28;20090;-66
2023/09/11 05:13:11;;;;;;;6.47;4.65;;;;;;;26.29;42.44;100303.13;5114073;28;20048;-67
2023/09/11 05:15:39;;;;;;;8.10;4.40;;;;;;;26.25;42.67;100284.38;5113800;28;20907;-67
2023/09/11 05:18:08;;;;;;;7.57;4.82;;;;;;;26.25;42.34;100291.72;5113546;28;20474;-67
2023/09/11 05:20:36;;;;;;;6.82;4.70;;;;;;;26.24;42.35;100290.00;5113388;28;20043;-67
2023/09/11 05:23:06;;;;;;;6.07;4.43;;;;;;;26.25;42.66;100298.03;5113641;28;20202;-67
2023/09/11 05:25:37;;;;;;;6.40;4.47;;;;;;;26.24;42.51;100293.59;5113415;28;20503;-67
2023/09/11 05:28:06;;;;;;;5.90;4.15;;;;;;;26.24;42.35;100295.47;5113043;28;20100;-67
2023/09/11 05:30:34;;;;;;;6.80;4.35;;;;;;;26.24;42.73;100295.47;5113392;28;20058;-66
2023/09/11 05:33:03;;;;;;;6.53;4.10;;;;;;;26.22;42.67;100284.72;5113270;28;20130;-67
2023/09/11 05:35:31;;;;;;;6.05;4.35;;;;;;;26.22;43.04;100290.19;5113193;28;20130;-68
2023/09/11 05:38:00;;;;;;;8.82;4.57;;;;;;;26.22;42.97;100300.28;5112821;28;20047;-68
2023/09/11 05:40:29;;;;;;;5.38;4.13;;;;;;;26.20;42.76;100295.03;5112466;28;20055;-68
2023/09/11 05:42:58;;;;;;;7.30;4.57;;;;;;;26.21;42.83;100293.13;5112732;28;20052;-68
2023/09/11 05:45:27;;;;;;;6.78;4.70;;;;;;;26.21;42.81;100299.44;5112597;28;20044;-68
2023/09/11 05:47:55;;;;;;;6.47;4.40;;;;;;;26.20;42.93;100295.03;5112791;28;20055;-68
2023/09/11 05:50:24;;;;;;;7.15;4.82;;;;;;;26.20;42.88;100300.50;5110138;28;20062;-68
2023/09/11 05:52:52;;;;;;;7.10;4.40;;;;;;;26.17;42.97;100289.94;5092607;28;20055;-68
2023/09/11 05:55:20;;;;;;;6.05;4.50;;;;;;;26.20;43.04;100296.91;5092391;28;20048;-68
2023/09/11 05:57:48;;;;;;;6.70;4.38;;;;;;;26.18;42.62;100297.09;5091451;28;20079;-67
2023/09/11 06:00:19;;;;;;;5.78;4.53;;;;;;;26.18;42.68;100301.72;5093420;28;20122;-66
2023/09/11 06:02:47;;;;;;;7.22;4.93;;;;;;;26.18;43.16;100297.09;5109537;28;20083;-67
2023/09/11 06:05:16;;;;;;;6.32;4.30;;;;;;;26.16;42.91;100293.72;5112698;28;20412;-68
2023/09/11 06:07:45;;;;;;;6.63;4.68;;;;;;;26.17;42.94;100295.41;5112544;28;20043;-66
2023/09/11 06:10:13;;;;;;;6.25;4.18;;;;;;;26.16;43.04;100293.72;5111291;28;20415;-67
2023/09/11 06:12:42;;;;;;;7.20;4.65;;;;;;;26.15;43.57;100297.50;5111563;28;20098;-66
2023/09/11 06:15:10;;;;;;;8.13;4.75;;;;;;;26.15;43.47;100292.03;5111402;28;20048;-66
2023/09/11 06:17:40;;;;;;;7.55;4.93;;;;;;;26.14;43.20;100289.47;5112171;28;20063;-67
2023/09/11 06:20:15;;;;;;;7.53;4.80;;;;;;;26.15;43.31;100293.88;5110992;28;20043;-67
2023/09/11 06:22:44;;;;;;;6.53;4.75;;;;;;;26.14;43.47;100290.31;5109706;28;20516;-68
2023/09/11 06:25:12;;;;;;;9.32;4.40;;;;;;;26.12;43.27;100292.41;5112158;28;20507;-66
2023/09/11 06:27:41;;;;;;;5.95;4.30;;;;;;;26.14;43.00;100298.50;5120400;27;20043;-67
2023/09/11 06:30:10;;;;;;;6.15;4.30;;;;;;;26.14;43.50;100300.41;5122901;27;20048;-68
2023/09/11 06:32:40;;;;;;;9.32;5.20;;;;;;;26.13;43.52;100294.09;5118201;27;20484;-67
2023/09/11 06:35:09;;;;;;;6.13;4.40;;;;;;;26.12;43.29;100295.13;5113959;27;20396;-66
2023/09/11 06:37:38;;;;;;;8.02;4.53;;;;;;;26.10;43.13;100294.47;5121103;27;20044;-67
2023/09/11 06:40:09;;;;;;;6.25;4.47;;;;;;;26.11;43.29;100296.19;5120292;27;20039;-67
2023/09/11 06:42:38;;;;;;;6.00;4.47;;;;;;;26.08;43.59;100296.56;5115886;27;20047;-67
2023/09/11 06:45:07;;;;;;;8.15;5.03;;;;;;;26.11;43.18;100298.06;5092623;28;20554;-67
2023/09/11 06:47:35;;;;;;;8.40;4.75;;;;;;;26.11;43.55;100296.19;5108571;27;20093;-68
2023/09/11 06:50:06;;;;;;;6.60;4.68;;;;;;;26.11;43.27;100298.06;5116821;27;20082;-68
2023/09/11 06:52:38;;;;;;;7.45;4.50;;;;;;;26.10;43.71;100299.94;5120381;27;20419;-68
2023/09/11 06:55:07;;;;;;;;;;;;;;;26.11;43.58;100298.06;5112763;27;20048;-68
2023/09/11 06:57:36;;;;;;;7.20;4.50;;;;;;;26.10;43.58;100305.41;5128240;27;19973;-69
2023/09/11 07:00:10;;;;;;;7.95;4.55;;;;;;;26.11;43.74;100312.56;5132230;27;20640;-69
2023/09/11 07:02:42;;;;;;;6.13;4.25;;;;;;;26.10;43.36;100310.88;5112036;28;20056;-69
2023/09/11 07:05:15;;;;;;;7.00;4.53;;;;;;;26.10;44.00;100310.03;5111343;28;20050;-69
2023/09/11 07:07:44;;;;;;;6.18;4.55;;;;;;;26.08;43.82;100312.97;5110990;28;20136;-69
2023/09/11 07:10:14;;;;;;;6.95;4.00;;;;;;;26.10;43.94;100316.34;5111448;28;20043;-68
2023/09/11 07:12:53;;;;;;;7.97;4.80;;;;;;;26.09;43.46;100314.66;5111108;28;20071;-68
2023/09/11 07:15:21;;;;;;;6.60;4.53;;;;;;;26.10;43.67;100315.50;5111638;28;20539;-68
2023/09/11 07:17:53;;;;;;;6.55;4.78;;;;;;;26.10;43.59;100318.25;5111986;28;20047;-68
2023/09/11 07:20:22;;;;;;;6.25;4.63;;;;;;;26.10;43.74;100321.81;5111953;28;20044;-68
2023/09/11 07:22:52;;;;;;;6.35;4.07;;;;;;;26.10;43.68;100319.09;5111293;28;20476;-68
2023/09/11 07:25:22;;;;;;;7.15;4.47;;;;;;;26.09;43.63;100320.13;5111443;28;20052;-69
2023/09/11 07:27:55;;;;;;;6.43;4.53;;;;;;;26.10;43.71;100321.81;5111413;28;20078;-67
2023/09/11 07:30:23;;;;;;;6.25;4.22;;;;;;;26.10;43.76;100330.03;5111474;28;20051;-68
2023/09/11 07:32:53;;;;;;;6.28;4.38;;;;;;;26.10;44.01;100330.03;5093508;28;20043;-67
2023/09/11 07:35:24;;;;;;;7.15;4.47;;;;;;;26.09;43.87;100322.84;5111598;28;20043;-69
2023/09/11 07:37:53;;;;;;;6.35;4.50;;;;;;;26.10;43.75;100320.97;5111185;28;20054;-69
2023/09/11 07:40:22;;;;;;;5.72;4.22;;;;;;;26.11;43.69;100326.25;5111370;28;20150;-68
2023/09/11 07:42:52;;;;;;;6.90;4.30;;;;;;;26.11;43.60;100328.13;5111189;28;20093;-68
2023/09/11 07:45:21;;;;;;;6.30;4.60;;;;;;;26.11;43.73;100328.97;5111521;28;20470;-69
2023/09/11 07:47:50;;;;;;;7.13;4.30;;;;;;;26.11;43.60;100328.97;5111525;28;20047;-69
2023/09/11 07:50:19;;;;;;;6.60;4.65;;;;;;;26.11;43.94;100328.97;5111456;28;20048;-69
2023/09/11 07:52:50;;;;;;;6.05;4.20;;;;;;;26.11;43.75;100314.47;5111236;28;20044;-69
2023/09/11 07:55:19;;;;;;;5.93;4.40;;;;;;;26.12;43.95;100316.16;5111075;28;20104;-69
2023/09/11 07:57:48;;;;;;;8.23;4.45;;;;;;;26.12;43.76;100313.41;5111419;28;20128;-68
2023/09/11 08:00:16;;;;;;;6.55;4.80;;;;;;;26.13;44.11;100320.59;5111553;28;20161;-69
2023/09/11 08:02:48;;;;;;;7.03;4.13;;;;;;;26.13;43.78;100320.59;5111216;28;20052;-69
2023/09/11 08:05:16;;;;;;;6.37;4.47;;;;;;;26.13;43.70;100321.44;5111520;28;20054;-68
2023/09/11 08:07:45;;;;;;;8.73;4.90;;;;;;;26.13;43.61;100315.97;5111297;28;20047;-68
2023/09/11 08:10:14;;;;;;;6.20;4.40;;;;;;;26.15;44.03;100307.56;5110980;28;20047;-68
2023/09/11 08:12:43;;;;;;;6.82;4.22;;;;;;;26.15;44.13;100313.03;5111411;28;20441;-68
2023/09/11 08:15:11;;;;;;;6.45;4.07;;;;;;;26.15;43.76;100310.28;5111023;28;20040;-68
2023/09/11 08:17:40;;;;;;;5.53;4.05;;;;;;;26.15;43.82;100307.56;5111197;28;20040;-69
2023/09/11 08:20:09;;;;;;;6.18;4.18;;;;;;;26.17;44.16;100310.97;5112320;28;20134;-68
2023/09/11 08:22:39;;;;;;;6.53;4.15;;;;;;;26.17;44.09;100311.81;5114758;28;20043;-68
2023/09/11 08:25:09;;;;;;;6.03;4.40;;;;;;;26.14;43.90;100306.72;5114862;28;20484;-68
2023/09/11 08:27:39;;;;;;;5.97;4.00;;;;;;;26.18;43.77;100310.78;5114962;28;20051;-69
2023/09/11 08:30:08;;;;;;;6.03;4.30;;;;;;;26.18;44.08;100304.47;5114979;28;20051;-69
2023/09/11 08:32:37;;;;;;;5.63;4.07;;;;;;;26.19;43.77;100298.81;5114746;28;20067;-68
2023/09/11 08:35:06;;;;;;;6.35;4.38;;;;;;;26.21;43.72;100304.06;5114630;28;20047;-69
2023/09/11 08:37:34;;;;;;;6.45;4.20;;;;;;;26.20;44.23;100288.72;5114382;28;20473;-68
2023/09/11 08:40:03;;;;;;;5.50;4.10;;;;;;;26.22;44.22;100303.03;5114680;28;20048;-68
2023/09/11 08:42:31;;;;;;;6.18;4.30;;;;;;;26.23;43.79;100302.81;5114518;28;20142;-68
2023/09/11 08:45:01;;;;;;;6.35;4.50;;;;;;;26.23;43.94;100297.38;5114413;28;20051;-68
2023/09/11 08:47:31;;;;;;;6.80;4.30;;;;;;;26.24;44.19;100290.00;5114195;28;20575;-68
2023/09/11 08:50:05;;;;;;;6.10;3.90;;;;;;;26.25;43.92;100295.31;5114225;28;20059;-68
2023/09/11 08:52:35;;;;;;;5.97;4.00;;;;;;;26.25;44.08;100292.56;5114487;28;20043;-68
2023/09/11 08:55:10;;;;;;;6.35;4.28;;;;;;;26.26;43.85;100285.22;5114113;28;20047;-68
2023/09/11 08:57:42;;;;;;;6.38;4.20;;;;;;;26.28;43.96;100285.03;5114225;28;20131;-68
2023/09/11 09:00:13;;;;;;;5.82;3.90;;;;;;;26.28;43.98;100285.03;5114089;28;20062;-68
2023/09/11 09:02:43;;;;;;;6.88;4.18;;;;;;;26.31;44.07;100290.09;5114349;28;20216;-68
2023/09/11 09:05:13;;;;;;;5.75;4.00;;;;;;;26.31;43.89;100282.72;5113832;28;20050;-68
2023/09/11 09:07:45;;;;;;;6.68;4.25;;;;;;;26.30;44.21;100277.47;5113985;28;20040;-68
2023/09/11 09:10:15;;;;;;;6.53;3.97;;;;;;;26.34;44.22;100285.06;5113659;28;20507;-69
2023/09/11 09:12:45;;;;;;;8.35;4.05;;;;;;;26.36;44.08;100284.91;5113751;28;20493;-68
2023/09/11 09:15:15;;;;;;;7.10;4.22;;;;;;;26.36;43.75;100284.91;5113924;28;20059;-68
2023/09/11 09:17:44;;;;;;;8.27;4.15;;;;;;;26.37;44.19;100283.84;5114097;28;20054;-68
2023/09/11 09:20:14;;;;;;;6.30;4.10;;;;;;;26.38;44.10;100285.59;5114308;28;20043;-68
2023/09/11 09:22:53;;;;;;;5.57;3.78;;;;;;;26.41;43.66;100276.97;5113731;28;20046;-68
2023/09/11 09:25:21;;;;;;;6.45;4.00;;;;;;;26.42;44.10;100275.94;5113773;28;20425;-68
2023/09/11 09:27:50;;;;;;;6.68;4.05;;;;;;;26.42;44.11;100273.19;5113480;28;20050;-68
2023/09/11 09:30:25;;;;;;;5.43;3.85;;;;;;;26.44;43.90;100271.09;5113803;28;20131;-69
2023/09/11 09:32:55;;;;;;;6.43;4.20;;;;;;;26.45;44.00;100276.41;5113739;28;20051;-70
2023/09/11 09:35:26;;;;;;;6.18;4.03;;;;;;;26.48;44.05;100277.91;5113664;28;20047;-69
2023/09/11 09:37:56;;;;;;;6.07;3.95;;;;;;;26.49;44.19;100271.38;5113231;28;20048;-69
2023/09/11 09:40:32;;;;;;;6.03;4.13;;;;;;;26.51;44.22;100263.81;5113172;28;20484;-69
2023/09/11 09:43:03;;;;;;;5.63;4.10;;;;;;;26.53;44.08;100267.22;5113686;28;20052;-68
2023/09/11 09:45:35;;;;;;;6.40;3.83;;;;;;;26.53;44.19;100267.22;5113612;28;20408;-69
2023/09/11 09:48:12;;;;;;;5.53;4.05;;;;;;;26.55;44.21;100262.41;5113331;28;20429;-69
2023/09/11 09:51:01;;;;;;;6.03;4.03;;;;;;;26.58;43.80;100267.47;5113586;28;20286;-69
2023/09/11 09:53:32;;;;;;;6.45;3.90;;;;;;;26.59;43.59;100249.19;5113367;28;20224;-69
2023/09/11 09:56:03;;;;;;;5.25;3.78;;;;;;;26.61;43.79;100250.66;5113205;28;20044;-69
2023/09/11 09:58:35;;;;;;;5.70;4.10;;;;;;;26.66;43.81;100256.41;5113118;28;20054;-69
2023/09/11 10:01:07;;;;;;;7.45;4.30;;;;;;;26.67;43.76;100249.03;5113141;28;20043;-70
2023/09/11 10:03:40;;;;;;;5.90;3.90;;;;;;;26.69;44.04;100245.06;5113047;28;20044;-69
2023/09/11 10:06:11;;;;;;;6.50;4.05;;;;;;;26.72;44.13;100241.94;5112951;28;20110;-69
2023/09/11 10:08:40;;;;;;;6.07;4.15;;;;;;;26.75;43.73;100237.97;5112792;28;20145;-69
2023/09/11 10:11:09;;;;;;;5.82;3.75;;;;;;;26.76;43.80;100232.28;5112694;28;20078;-68
2023/09/11 10:13:38;;;;;;;7.72;4.07;;;;;;;26.79;44.02;100229.16;5112891;28;20126;-69
2023/09/11 10:16:09;;;;;;;6.32;4.22;;;;;;;26.84;44.21;100235.94;5113097;28;20469;-69
2023/09/11 10:18:41;;;;;;;6.40;3.70;;;;;;;26.86;44.21;100228.38;5112975;28;20472;-69
2023/09/11 10:21:10;;;;;;;5.88;4.13;;;;;;;26.88;44.25;100223.53;5112866;28;20047;-69
2023/09/11 10:23:38;;;;;;;5.97;3.88;;;;;;;26.91;43.90;100214.91;5112509;28;20270;-69
2023/09/11 10:26:09;;;;;;;6.78;3.90;;;;;;;26.96;43.86;100216.03;5112530;28;20050;-69
2023/09/11 10:28:42;;;;;;;6.68;4.05;;;;;;;26.99;43.94;100212.03;5112781;28;20070;-69
2023/09/11 10:31:17;;;;;;;6.78;3.90;;;;;;;27.03;43.90;100214.22;5112845;28;20469;-69
2023/09/11 10:33:49;;;;;;;5.00;3.65;;;;;;;27.07;44.24;100200.97;5112393;28;20484;-69
2023/09/11 10:36:21;;;;;;;5.40;3.88;;;;;;;27.10;43.94;100204.13;5112281;28;20044;-69
2023/09/11 10:38:51;;;;;;;;;;;;;;;27.14;43.84;100193.66;5112779;28;20097;-69
2023/09/11 10:41:20;;;;;;;4.80;3.40;;;;;;;27.17;44.19;100195.97;5112383;28;19949;-69
2023/09/11 10:43:48;;;;;;;5.43;4.07;;;;;;;27.22;44.17;100195.41;5111874;28;20134;-69
2023/09/11 10:46:32;;;;;;;5.78;3.65;;;;;;;27.25;44.13;100194.97;5112103;28;20144;-69
2023/09/11 10:49:01;;;;;;;5.50;3.80;;;;;;;27.31;43.73;100197.75;5112052;28;20136;-68
2023/09/11 10:51:29;;;;;;;5.05;3.60;;;;;;;27.33;43.60;100192.06;5112313;28;20054;-69
2023/09/11 10:53:58;;;;;;;8.43;4.32;;;;;;;27.38;44.01;100195.03;5112330;28;20058;-69
2023/09/11 10:56:26;;;;;;;5.93;3.65;;;;;;;27.43;43.40;100199.94;5112215;28;20047;-69
2023/09/11 10:58:55;;;;;;;7.20;4.10;;;;;;;27.48;43.42;100194.66;5112218;28;20047;-70
2023/09/11 11:01:24;;;;;;;6.03;4.20;;;;;;;27.50;43.36;100185.19;5112178;28;20050;-69
2023/09/11 11:03:53;;;;;;;6.40;3.90;;;;;;;27.56;43.29;100192.59;5111842;28;20044;-69
2023/09/11 11:06:23;;;;;;;5.13;3.75;;;;;;;27.60;43.63;100187.53;5112160;28;20051;-70
2023/09/11 11:08:52;;;;;;;6.15;3.92;;;;;;;27.62;43.24;100186.31;5112184;28;20116;-69
2023/09/11 11:11:25;;;;;;;5.80;3.60;;;;;;;27.69;43.55;100186.34;5111697;28;20134;-69
2023/09/11 11:14:18;;;;;;;5.63;3.90;;;;;;;27.74;43.63;100178.38;5111802;28;20049;-69
2023/09/11 11:17:00;;;;;;;6.18;3.83;;;;;;;27.79;43.14;100178.59;5111738;28;20043;-69
2023/09/11 11:19:30;;;;;;;5.80;3.53;;;;;;;27.79;42.99;100178.59;5111872;28;20135;-69
2023/09/11 11:22:00;;;;;;;6.10;3.45;;;;;;;27.88;43.38;100182.00;5112052;28;20079;-69
2023/09/11 11:24:31;;;;;;;5.28;3.55;;;;;;;27.92;43.48;100178.66;5111642;28;20415;-69
2023/09/11 11:27:03;;;;;;;5.18;3.63;;;;;;;27.98;43.31;100179.69;5111927;28;20055;-69
2023/09/11 11:29:32;;;;;;;5.63;3.65;;;;;;;28.03;43.24;100177.19;5111927;28;20420;-69
2023/09/11 11:32:09;;;;;;;6.03;3.80;;;;;;;28.08;42.62;100180.13;5111751;28;20048;-69
2023/09/11 11:34:38;;;;;;;6.55;3.90;;;;;;;28.14;42.78;100178.47;5111535;28;20081;-69
2023/09/11 11:37:06;;;;;;;5.55;3.70;;;;;;;28.17;43.08;100183.53;5111569;28;20048;-69
2023/09/11 11:39:36;;;;;;;5.65;3.83;;;;;;;28.20;42.64;100167.53;5111973;28;20055;-69